createdAt,value
2019-03-31T00:01:22.931Z,100107.02
2019-03-31T00:03:49.375Z,100106.55
2019-03-31T00:06:15.997Z,100111.64
2019-03-31T00:08:42.453Z,100109.13
2019-03-31T00:11:09.242Z,100107.76
2019-03-31T00:13:35.661Z,100103.56
2019-03-31T00:16:02.744Z,100110.11
2019-03-31T00:18:29.218Z,100095.05
2019-03-31T00:20:55.560Z,100105.57
2019-03-31T00:23:22.162Z,100105.29
2019-03-31T00:25:48.526Z,100103.00
2019-03-31T00:28:16.041Z,100111.09
2019-03-31T00:30:42.902Z,100109.27
2019-03-31T00:33:09.527Z,100114.37
2019-03-31T00:35:36.283Z,100109.17
2019-03-31T00:38:03.232Z,100109.40
2019-03-31T00:40:29.868Z,100106.02
2019-03-31T00:42:56.205Z,100105.17
2019-03-31T00:45:22.869Z,100104.65
2019-03-31T00:47:49.643Z,100107.42
2019-03-31T00:50:16.607Z,100112.38
2019-03-31T00:52:42.956Z,100116.77
2019-03-31T00:55:09.579Z,100110.22
2019-03-31T00:57:35.961Z,100112.41
2019-03-31T01:00:06.979Z,100116.83
2019-03-31T01:02:35.532Z,100109.66
2019-03-31T01:05:04.670Z,100112.06
2019-03-31T01:07:31.579Z,100104.13
2019-03-31T01:09:58.057Z,100100.66
2019-03-31T01:12:25.391Z,100106.27
2019-03-31T01:14:51.946Z,100118.53
2019-03-31T01:17:19.664Z,100111.62
2019-03-31T01:19:46.224Z,100111.30
2019-03-31T01:22:12.722Z,100108.58
2019-03-31T01:24:39.192Z,100103.55
2019-03-31T01:27:08.700Z,100112.88
2019-03-31T01:29:35.267Z,100105.89
2019-03-31T01:32:01.793Z,100106.86
2019-03-31T01:34:28.101Z,100112.17
2019-03-31T01:36:54.850Z,100107.39
2019-03-31T01:39:22.679Z,100107.27
2019-03-31T01:41:49.635Z,100106.64
2019-03-31T01:44:17.086Z,100105.39
2019-03-31T01:46:43.417Z,100107.00
2019-03-31T01:49:09.775Z,100106.52
2019-03-31T01:51:36.079Z,100113.30
2019-03-31T01:54:02.995Z,100109.47
2019-03-31T01:56:29.663Z,100107.98
2019-03-31T01:58:56.643Z,100114.16
2019-03-31T02:01:23.499Z,100104.17
2019-03-31T02:03:50.113Z,100110.41
2019-03-31T02:06:16.457Z,100110.48
2019-03-31T02:08:43.061Z,100108.88
2019-03-31T02:11:09.447Z,100110.67
2019-03-31T02:13:36.034Z,100114.17
2019-03-31T02:16:02.386Z,100115.27
2019-03-31T02:18:28.714Z,100114.51
2019-03-31T02:20:55.064Z,100115.72
2019-03-31T02:23:21.788Z,100119.14
2019-03-31T02:25:49.549Z,100112.14
2019-03-31T02:28:15.975Z,100113.81
2019-03-31T02:30:42.289Z,100109.80
2019-03-31T02:33:09.063Z,100115.12
2019-03-31T02:35:35.382Z,100118.06
2019-03-31T02:38:01.746Z,100115.80
2019-03-31T02:40:28.112Z,100124.91
2019-03-31T02:42:54.563Z,100115.86
2019-03-31T02:45:21.326Z,100117.85
2019-03-31T02:47:47.698Z,100118.13
2019-03-31T02:50:39.998Z,100108.95
2019-03-31T02:53:06.364Z,100118.57
2019-03-31T02:55:33.027Z,100110.12
2019-03-31T02:57:59.670Z,100108.42
2019-03-31T03:00:26.270Z,100112.17
2019-03-31T03:02:53.804Z,100115.26
2019-03-31T03:05:22.285Z,100109.98
2019-03-31T03:07:49.901Z,100113.91
2019-03-31T03:10:17.513Z,100115.49
2019-03-31T03:12:44.095Z,100114.94
2019-03-31T03:15:14.263Z,100115.84
2019-03-31T03:17:40.991Z,100108.16
2019-03-31T03:20:07.760Z,100113.05
2019-03-31T03:22:34.111Z,100118.94
2019-03-31T03:25:00.531Z,100125.79
2019-03-31T03:27:26.921Z,100123.20
2019-03-31T03:29:53.273Z,100123.43
2019-03-31T03:32:19.677Z,100129.02
2019-03-31T03:34:46.032Z,100132.52
2019-03-31T03:37:12.411Z,100130.15
2019-03-31T03:39:39.122Z,100137.44
2019-03-31T03:42:05.838Z,100137.03
2019-03-31T03:44:32.284Z,100134.22
2019-03-31T03:46:58.618Z,100141.94
2019-03-31T03:49:24.955Z,100133.62
2019-03-31T03:51:51.312Z,100138.02
2019-03-31T03:54:17.977Z,100134.69
2019-03-31T03:56:45.382Z,100139.60
2019-03-31T03:59:12.227Z,100140.12
2019-03-31T04:01:38.851Z,100145.73
2019-03-31T04:04:05.196Z,100154.20
2019-03-31T04:06:32.147Z,100148.22
2019-03-31T04:08:58.453Z,100148.34
2019-03-31T04:11:25.797Z,100153.05
2019-03-31T04:13:52.555Z,100142.73
2019-03-31T04:16:18.968Z,100150.16
2019-03-31T04:18:45.337Z,100150.22
2019-03-31T04:21:11.704Z,100149.47
2019-03-31T04:23:38.066Z,100152.69
2019-03-31T04:26:04.441Z,100154.66
2019-03-31T04:28:30.805Z,100154.65
2019-03-31T04:30:57.273Z,100149.40
2019-03-31T04:33:23.628Z,100157.06
2019-03-31T04:35:49.990Z,100168.23
2019-03-31T04:38:16.326Z,100161.95
2019-03-31T04:40:43.530Z,100169.17
2019-03-31T04:43:11.209Z,100169.61
2019-03-31T04:45:37.578Z,100166.98
2019-03-31T04:48:03.967Z,100169.28
2019-03-31T04:50:30.289Z,100167.11
2019-03-31T04:52:56.636Z,100166.36
2019-03-31T04:55:22.938Z,100166.85
2019-03-31T04:57:49.338Z,100173.78
2019-03-31T05:00:16.082Z,100176.67
2019-03-31T05:02:42.416Z,100179.29
2019-03-31T05:05:08.786Z,100185.96
2019-03-31T05:07:35.097Z,100191.99
2019-03-31T05:10:04.277Z,100195.98
2019-03-31T05:12:30.958Z,100194.72
2019-03-31T05:14:57.385Z,100203.58
2019-03-31T05:17:24.034Z,100202.27
2019-03-31T05:19:50.387Z,100203.75
2019-03-31T05:22:16.719Z,100210.90
2019-03-31T05:24:43.052Z,100212.72
2019-03-31T05:27:09.488Z,100214.02
2019-03-31T05:29:35.810Z,100209.64
2019-03-31T05:32:02.660Z,100214.87
2019-03-31T05:34:29.362Z,100219.33
2019-03-31T05:36:55.677Z,100219.42
2019-03-31T05:39:22.349Z,100222.12
2019-03-31T05:41:48.983Z,100228.26
2019-03-31T05:44:15.330Z,100224.02
2019-03-31T05:46:41.632Z,100221.86
2019-03-31T05:49:08.399Z,100224.48
2019-03-31T05:51:35.123Z,100229.31
2019-03-31T05:54:01.867Z,100231.47
2019-03-31T05:56:28.506Z,100236.59
2019-03-31T05:58:55.143Z,100235.95
2019-03-31T06:01:21.717Z,100238.24
2019-03-31T06:03:48.033Z,100241.37
2019-03-31T06:06:14.382Z,100248.71
2019-03-31T06:08:41.084Z,100250.23
2019-03-31T06:11:07.790Z,100256.73
2019-03-31T06:13:34.186Z,100254.91
2019-03-31T06:16:00.812Z,100256.35
2019-03-31T06:18:27.150Z,100258.12
2019-03-31T06:20:53.879Z,100259.07
2019-03-31T06:23:20.196Z,100260.52
2019-03-31T06:25:46.678Z,100258.00
2019-03-31T06:28:13.375Z,100257.48
2019-03-31T06:30:40.172Z,100252.58
2019-03-31T06:33:06.538Z,100254.59
2019-03-31T06:35:32.843Z,100259.20
2019-03-31T06:38:00.951Z,100253.53
2019-03-31T06:40:27.263Z,100255.97
2019-03-31T06:42:53.656Z,100267.34
2019-03-31T06:45:19.977Z,100270.39
2019-03-31T06:47:46.551Z,100271.30
2019-03-31T06:50:13.331Z,100275.72
2019-03-31T06:52:39.789Z,100275.79
2019-03-31T06:55:07.265Z,100278.05
2019-03-31T06:57:33.595Z,100284.19
2019-03-31T06:59:59.974Z,100286.30
2019-03-31T07:02:27.558Z,100292.95
2019-03-31T07:05:00.903Z,100294.77
2019-03-31T07:07:23.813Z,100300.36
2019-03-31T07:09:50.498Z,100300.28
2019-03-31T07:12:17.157Z,100297.69
2019-03-31T07:14:43.797Z,100301.80
2019-03-31T07:17:10.120Z,100301.24
2019-03-31T07:19:36.449Z,100301.23
2019-03-31T07:22:02.827Z,100309.63
2019-03-31T07:24:29.122Z,100321.63
2019-03-31T07:26:55.485Z,100322.30
2019-03-31T07:29:21.796Z,100328.06
2019-03-31T07:31:48.430Z,100337.07
2019-03-31T07:34:14.785Z,100330.77
2019-03-31T07:36:41.230Z,100343.73
2019-03-31T07:39:07.946Z,100341.80
2019-03-31T07:41:34.734Z,100344.64
2019-03-31T07:44:02.196Z,100345.30
2019-03-31T07:46:31.406Z,100351.34
2019-03-31T07:48:58.009Z,100357.23
2019-03-31T07:51:24.359Z,100356.19
2019-03-31T07:53:50.696Z,100351.45
2019-03-31T07:56:18.440Z,100347.03
2019-03-31T07:58:45.170Z,100344.54
2019-03-31T08:01:11.450Z,100346.06
2019-03-31T08:03:38.077Z,100350.67
2019-03-31T08:06:04.872Z,100347.08
2019-03-31T08:08:31.595Z,100348.33
2019-03-31T08:10:57.924Z,100354.72
2019-03-31T08:13:24.561Z,100351.63
2019-03-31T08:15:51.198Z,100361.31
2019-03-31T08:18:17.842Z,100357.56
2019-03-31T08:20:44.188Z,100365.94
2019-03-31T08:23:10.803Z,100370.44
2019-03-31T08:25:37.168Z,100370.91
2019-03-31T08:28:03.465Z,100373.69
2019-03-31T08:30:29.817Z,100371.95
2019-03-31T08:32:56.441Z,100368.27
2019-03-31T08:35:23.078Z,100367.30
2019-03-31T08:37:49.420Z,100367.97
2019-03-31T08:40:17.222Z,100376.20
2019-03-31T08:42:43.575Z,100380.66
2019-03-31T08:45:12.209Z,100378.35
2019-03-31T08:47:38.680Z,100378.27
2019-03-31T08:50:06.549Z,100390.37
2019-03-31T08:52:32.908Z,100391.68
2019-03-31T08:54:59.561Z,100394.80
2019-03-31T08:57:25.890Z,100406.84
2019-03-31T08:59:52.276Z,100402.55
2019-03-31T09:02:22.937Z,100408.29
2019-03-31T09:04:49.315Z,100407.97
2019-03-31T09:07:16.025Z,100411.23
2019-03-31T09:09:42.377Z,100411.58
2019-03-31T09:12:09.018Z,100409.82
2019-03-31T09:14:35.836Z,100399.37
2019-03-31T09:17:02.746Z,100410.45
2019-03-31T09:19:29.435Z,100411.34
2019-03-31T09:21:55.833Z,100421.89
2019-03-31T09:24:22.155Z,100417.92
2019-03-31T09:26:49.699Z,100421.47
2019-03-31T09:29:16.046Z,100430.37
2019-03-31T09:31:42.358Z,100428.69
2019-03-31T09:34:08.802Z,100432.83
2019-03-31T09:36:35.208Z,100440.88
2019-03-31T09:39:01.812Z,100431.16
2019-03-31T09:41:29.148Z,100437.42
2019-03-31T09:43:55.824Z,100437.14
2019-03-31T09:46:22.167Z,100440.31
2019-03-31T09:48:48.912Z,100445.53
2019-03-31T09:51:15.533Z,100441.98
2019-03-31T09:53:41.965Z,100451.32
2019-03-31T09:56:08.277Z,100442.50
2019-03-31T09:58:34.679Z,100447.09
2019-03-31T10:01:01.003Z,100442.22
2019-03-31T10:03:27.378Z,100447.63
2019-03-31T10:05:54.126Z,100448.41
2019-03-31T10:08:22.268Z,100450.89
2019-03-31T10:10:48.759Z,100448.28
2019-03-31T10:13:15.196Z,100454.81
2019-03-31T10:15:42.342Z,100448.41
2019-03-31T10:18:08.968Z,100452.02
2019-03-31T10:20:35.423Z,100449.19
2019-03-31T10:23:01.730Z,100450.35
2019-03-31T10:25:28.372Z,100443.14
2019-03-31T10:27:54.736Z,100450.51
2019-03-31T10:30:36.661Z,100459.20
2019-03-31T10:33:04.805Z,100455.14
2019-03-31T10:35:31.262Z,100452.15
2019-03-31T10:37:57.705Z,100455.28
2019-03-31T10:40:24.057Z,100454.66
2019-03-31T10:42:50.417Z,100452.92
2019-03-31T10:45:16.773Z,100445.40
2019-03-31T10:47:43.470Z,100457.73
2019-03-31T10:50:10.043Z,100437.24
2019-03-31T10:52:36.395Z,100454.48
2019-03-31T10:55:05.707Z,100446.36
2019-03-31T10:57:32.374Z,100452.84
2019-03-31T10:59:58.715Z,100445.71
2019-03-31T11:02:25.042Z,100446.23
2019-03-31T11:04:51.451Z,100446.17
2019-03-31T11:07:18.099Z,100448.45
2019-03-31T11:09:44.750Z,100453.44
2019-03-31T11:12:11.086Z,100451.41
2019-03-31T11:14:37.751Z,100454.70
2019-03-31T11:17:04.433Z,100457.23
2019-03-31T11:19:31.829Z,100458.42
2019-03-31T11:22:02.696Z,100455.58
2019-03-31T11:24:29.424Z,100461.48
2019-03-31T11:26:56.121Z,100462.83
2019-03-31T11:29:23.719Z,100462.01
2019-03-31T11:31:50.476Z,100456.98
2019-03-31T11:34:19.655Z,100459.84
2019-03-31T11:36:46.346Z,100463.50
2019-03-31T11:39:16.143Z,100469.38
2019-03-31T11:41:41.269Z,100469.80
2019-03-31T11:44:07.564Z,100477.09
2019-03-31T11:46:33.953Z,100481.05
2019-03-31T11:49:01.346Z,100479.70
2019-03-31T11:51:27.698Z,100476.25
2019-03-31T11:53:54.399Z,100483.02
2019-03-31T11:56:20.729Z,100480.53
2019-03-31T11:58:47.093Z,100484.16
2019-03-31T12:01:13.456Z,100478.69
2019-03-31T12:03:40.118Z,100479.09
2019-03-31T12:06:06.419Z,100468.13
2019-03-31T12:08:32.795Z,100477.77
2019-03-31T12:10:59.112Z,100466.26
2019-03-31T12:13:25.441Z,100487.94
2019-03-31T12:15:52.091Z,100474.09
2019-03-31T12:18:18.386Z,100481.02
2019-03-31T12:20:44.783Z,100483.27
2019-03-31T12:23:11.150Z,100480.40
2019-03-31T12:25:37.471Z,100480.85
2019-03-31T12:28:03.820Z,100483.22
2019-03-31T12:30:30.136Z,100488.17
2019-03-31T12:32:56.937Z,100480.17
2019-03-31T12:35:23.296Z,100488.37
2019-03-31T12:37:51.984Z,100478.19
2019-03-31T12:40:31.821Z,100469.66
2019-03-31T12:42:58.581Z,100469.77
2019-03-31T12:45:25.277Z,100468.32
2019-03-31T12:47:51.685Z,100467.41
2019-03-31T12:50:18.089Z,100470.98
2019-03-31T12:52:46.977Z,100473.25
2019-03-31T12:55:13.740Z,100474.02
2019-03-31T12:57:40.071Z,100469.44
2019-03-31T13:00:07.196Z,100474.56
2019-03-31T13:02:33.976Z,100472.20
2019-03-31T13:05:01.650Z,100464.07
2019-03-31T13:07:28.291Z,100462.12
2019-03-31T13:09:54.602Z,100460.36
2019-03-31T13:12:20.944Z,100461.12
2019-03-31T13:14:47.276Z,100463.06
2019-03-31T13:17:13.936Z,100470.68
2019-03-31T13:19:40.357Z,100475.84
2019-03-31T13:22:08.015Z,100470.31
2019-03-31T13:24:34.354Z,100463.80
2019-03-31T13:27:00.688Z,100462.20
2019-03-31T13:29:27.320Z,100472.08
2019-03-31T13:31:53.944Z,100469.69
2019-03-31T13:34:20.705Z,100466.53
2019-03-31T13:36:47.017Z,100456.83
2019-03-31T13:39:13.379Z,100462.22
2019-03-31T13:41:39.688Z,100458.33
2019-03-31T13:44:06.433Z,100455.11
2019-03-31T13:46:33.065Z,100448.42
2019-03-31T13:49:00.000Z,100463.34
2019-03-31T13:51:26.733Z,100457.11
2019-03-31T13:53:53.203Z,100459.25
2019-03-31T13:56:20.224Z,100459.06
2019-03-31T13:58:52.520Z,100460.01
2019-03-31T14:01:15.347Z,100456.67
2019-03-31T14:03:41.701Z,100454.84
2019-03-31T14:06:08.110Z,100462.23
2019-03-31T14:08:34.465Z,100458.06
2019-03-31T14:11:01.093Z,100454.70
2019-03-31T14:13:27.943Z,100462.18
2019-03-31T14:15:54.366Z,100462.38
2019-03-31T14:18:20.770Z,100459.73
2019-03-31T14:20:47.438Z,100460.50
2019-03-31T14:23:14.190Z,100466.60
2019-03-31T14:25:40.839Z,100453.75
2019-03-31T14:28:07.655Z,100462.62
2019-03-31T14:30:34.107Z,100459.62
2019-03-31T14:33:00.834Z,100456.88
2019-03-31T14:35:27.549Z,100457.26
2019-03-31T14:37:54.844Z,100458.66
2019-03-31T14:40:21.578Z,100461.34
2019-03-31T14:42:47.930Z,100459.72
2019-03-31T14:45:30.274Z,100463.53
2019-03-31T14:48:00.026Z,100462.05
2019-03-31T14:50:35.740Z,100463.69
2019-03-31T14:53:03.600Z,100463.83
2019-03-31T14:55:29.946Z,100457.73
2019-03-31T14:57:56.257Z,100461.72
2019-03-31T15:00:22.597Z,100462.05
2019-03-31T15:02:48.942Z,100468.04
2019-03-31T15:05:15.608Z,100463.20
2019-03-31T15:07:41.984Z,100472.73
2019-03-31T15:10:08.442Z,100467.89
2019-03-31T15:12:34.766Z,100463.72
2019-03-31T15:15:01.405Z,100469.23
2019-03-31T15:17:28.109Z,100463.72
2019-03-31T15:19:54.604Z,100463.74
2019-03-31T15:22:21.079Z,100467.30
2019-03-31T15:24:47.790Z,100471.86
2019-03-31T15:27:14.587Z,100471.28
2019-03-31T15:29:40.999Z,100471.63
2019-03-31T15:32:07.397Z,100465.89
2019-03-31T15:34:33.723Z,100472.12
2019-03-31T15:37:00.081Z,100460.74
2019-03-31T15:39:26.581Z,100464.33
2019-03-31T15:41:52.982Z,100469.82
2019-03-31T15:47:17.529Z,100476.03
2019-03-31T15:49:43.863Z,100472.00
2019-03-31T15:52:10.229Z,100473.02
2019-03-31T15:54:36.697Z,100471.98
2019-03-31T15:57:05.781Z,100479.72
2019-03-31T15:59:32.674Z,100476.48
2019-03-31T16:01:59.067Z,100477.24
2019-03-31T16:04:25.362Z,100481.41
2019-03-31T16:06:52.010Z,100474.97
2019-03-31T16:09:23.615Z,100477.45
2019-03-31T16:11:53.629Z,100479.61
2019-03-31T16:14:20.035Z,100479.77
2019-03-31T16:16:52.075Z,100479.76
2019-03-31T16:19:31.357Z,100485.23
2019-03-31T16:21:59.526Z,100489.17
2019-03-31T16:24:46.182Z,100483.52
2019-03-31T16:27:18.147Z,100480.13
2019-03-31T16:29:45.277Z,100485.98
2019-03-31T16:32:11.676Z,100488.78
2019-03-31T16:34:38.649Z,100488.08
2019-03-31T16:37:08.261Z,100493.59
2019-03-31T16:39:37.903Z,100495.28
2019-03-31T16:42:03.327Z,100489.68
2019-03-31T16:44:29.677Z,100492.66
2019-03-31T16:46:56.378Z,100489.07
2019-03-31T16:49:23.115Z,100489.48
2019-03-31T16:51:49.901Z,100493.30
2019-03-31T16:54:16.598Z,100496.38
2019-03-31T16:56:45.975Z,100499.98
2019-03-31T16:59:12.726Z,100497.06
2019-03-31T17:01:39.638Z,100504.27
2019-03-31T17:04:06.396Z,100503.91
2019-03-31T17:06:32.815Z,100505.17
2019-03-31T17:08:59.523Z,100508.55
2019-03-31T17:11:26.187Z,100504.79
2019-03-31T17:13:52.897Z,100509.11
2019-03-31T17:16:19.294Z,100509.30
2019-03-31T17:18:46.395Z,100509.13
2019-03-31T17:21:13.988Z,100510.58
2019-03-31T17:23:40.449Z,100513.25
2019-03-31T17:26:07.071Z,100515.73
2019-03-31T17:28:43.451Z,100518.94
2019-03-31T17:31:05.889Z,100514.56
2019-03-31T17:33:32.750Z,100521.17
2019-03-31T17:36:00.112Z,100529.28
2019-03-31T17:38:26.751Z,100523.14
2019-03-31T17:40:54.187Z,100527.31
2019-03-31T17:43:20.858Z,100526.95
2019-03-31T17:45:47.896Z,100531.11
2019-03-31T17:48:14.970Z,100533.03
2019-03-31T17:50:43.478Z,100547.88
2019-03-31T17:53:11.252Z,100541.75
2019-03-31T17:55:38.019Z,100544.05
2019-03-31T17:58:04.662Z,100544.38
2019-03-31T18:00:32.096Z,100541.48
2019-03-31T18:02:58.858Z,100545.33
2019-03-31T18:05:25.201Z,100556.81
2019-03-31T18:07:51.608Z,100557.92
2019-03-31T18:10:27.361Z,100559.34
2019-03-31T18:12:54.253Z,100563.50
2019-03-31T18:15:20.753Z,100557.47
2019-03-31T18:17:47.294Z,100558.21
2019-03-31T18:20:13.684Z,100560.37
2019-03-31T18:22:40.516Z,100564.43
2019-03-31T18:25:07.832Z,100571.03
2019-03-31T18:27:34.284Z,100571.09
2019-03-31T18:30:00.663Z,100576.44
2019-03-31T18:32:27.143Z,100580.13
2019-03-31T18:34:53.948Z,100579.09
2019-03-31T18:37:22.390Z,100581.47
2019-03-31T18:39:49.109Z,100589.95
2019-03-31T18:42:16.551Z,100583.64
2019-03-31T18:44:43.929Z,100594.53
2019-03-31T18:47:10.315Z,100594.23
2019-03-31T18:49:37.422Z,100593.53
2019-03-31T18:52:03.907Z,100594.55
2019-03-31T18:54:33.462Z,100594.69
2019-03-31T18:57:08.227Z,100598.70
2019-03-31T18:59:40.052Z,100598.26
2019-03-31T19:02:12.497Z,100589.44
2019-03-31T19:05:00.638Z,100602.19
2019-03-31T19:07:44.492Z,100604.23
2019-03-31T19:10:33.890Z,100600.02
2019-03-31T19:13:17.994Z,100602.16
2019-03-31T19:15:51.134Z,100608.41
2019-03-31T19:18:22.763Z,100608.58
2019-03-31T19:21:11.147Z,100605.56
2019-03-31T19:23:38.457Z,100609.01
2019-03-31T19:26:23.245Z,100610.80
2019-03-31T19:28:49.931Z,100612.84
2019-03-31T19:31:21.624Z,100616.48
2019-03-31T19:34:00.291Z,100617.88
2019-03-31T19:36:35.931Z,100609.95
2019-03-31T19:39:14.801Z,100612.45
2019-03-31T19:42:00.243Z,100624.04
2019-03-31T19:44:28.576Z,100623.83
2019-03-31T19:46:57.928Z,100621.67
2019-03-31T19:49:35.327Z,100622.80
2019-03-31T19:52:21.909Z,100621.48
2019-03-31T19:54:53.601Z,100620.69
2019-03-31T19:57:25.160Z,100622.23
2019-03-31T19:59:53.567Z,100619.55
2019-03-31T20:02:29.105Z,100618.17
2019-03-31T20:05:11.056Z,100625.59
2019-03-31T20:07:45.242Z,100626.78
2019-03-31T20:10:14.468Z,100622.25
2019-03-31T20:12:49.112Z,100621.94
2019-03-31T20:15:17.800Z,100627.18
2019-03-31T20:17:49.184Z,100626.53
2019-03-31T20:20:23.991Z,100632.92
2019-03-31T20:22:56.123Z,100633.50
2019-03-31T20:25:42.722Z,100628.42
2019-03-31T20:28:14.936Z,100630.66
2019-03-31T20:31:01.810Z,100628.64
2019-03-31T20:33:38.993Z,100637.35
2019-03-31T20:36:10.225Z,100626.50
2019-03-31T20:38:56.925Z,100631.14
2019-03-31T20:41:44.243Z,100631.36
2019-03-31T20:44:10.955Z,100630.83
2019-03-31T20:46:37.432Z,100637.05
2019-03-31T20:49:03.765Z,100638.41
2019-03-31T20:51:30.547Z,100636.64
2019-03-31T20:53:56.889Z,100637.17
2019-03-31T20:56:23.287Z,100640.41
2019-03-31T20:58:49.959Z,100640.95
2019-03-31T21:01:16.601Z,100643.81
2019-03-31T21:03:42.941Z,100642.70
2019-03-31T21:06:09.555Z,100649.45
2019-03-31T21:08:37.756Z,100655.92
2019-03-31T21:11:04.793Z,100653.81
2019-03-31T21:13:31.436Z,100655.05
2019-03-31T21:15:58.163Z,100656.31
2019-03-31T21:18:24.556Z,100660.82
2019-03-31T21:20:51.225Z,100655.71
2019-03-31T21:23:17.596Z,100662.62
2019-03-31T21:25:43.933Z,100665.23
2019-03-31T21:28:10.568Z,100670.20
2019-03-31T21:30:37.370Z,100667.98
2019-03-31T21:33:04.011Z,100670.41
2019-03-31T21:35:30.362Z,100676.13
2019-03-31T21:37:56.832Z,100673.00
2019-03-31T21:40:23.204Z,100679.45
2019-03-31T21:42:49.675Z,100681.86
2019-03-31T21:45:15.990Z,100679.60
2019-03-31T21:47:42.403Z,100686.05
2019-03-31T21:50:09.070Z,100683.69
2019-03-31T21:52:35.396Z,100689.40
2019-03-31T21:55:03.498Z,100693.21
2019-03-31T21:57:30.199Z,100696.07
2019-03-31T21:59:56.557Z,100696.84
2019-03-31T22:02:22.896Z,100704.34
2019-03-31T22:04:49.218Z,100702.45
2019-03-31T22:07:15.568Z,100704.89
2019-03-31T22:09:41.914Z,100701.64
2019-03-31T22:12:08.258Z,100696.12
2019-03-31T22:14:34.917Z,100709.64
2019-03-31T22:17:01.567Z,100705.64
2019-03-31T22:19:27.911Z,100709.00
2019-03-31T22:21:54.348Z,100712.95
2019-03-31T22:24:20.677Z,100718.52
2019-03-31T22:26:46.989Z,100715.91
2019-03-31T22:29:13.844Z,100723.12
2019-03-31T22:31:40.178Z,100721.34
2019-03-31T22:34:06.650Z,100710.08
2019-03-31T22:36:33.016Z,100718.05
2019-03-31T22:38:59.680Z,100716.34
2019-03-31T22:41:26.035Z,100724.56
2019-03-31T22:43:52.729Z,100719.03
2019-03-31T22:46:19.067Z,100715.58
2019-03-31T22:48:45.426Z,100719.55
2019-03-31T22:51:11.860Z,100715.34
2019-03-31T22:53:38.181Z,100718.87
2019-03-31T22:56:05.102Z,100720.17
2019-03-31T22:58:31.434Z,100718.58
2019-03-31T23:00:58.197Z,100716.42
2019-03-31T23:03:24.818Z,100721.41
2019-03-31T23:05:51.457Z,100724.70
2019-03-31T23:08:17.925Z,100721.97
2019-03-31T23:10:44.629Z,100727.73
2019-03-31T23:13:11.782Z,100733.86
2019-03-31T23:15:38.423Z,100729.36
2019-03-31T23:18:04.777Z,100733.56
2019-03-31T23:20:32.234Z,100731.77
2019-03-31T23:22:58.967Z,100729.78
2019-03-31T23:25:25.388Z,100735.13
2019-03-31T23:27:51.836Z,100734.11
2019-03-31T23:30:18.253Z,100731.99
2019-03-31T23:32:44.582Z,100735.64
2019-03-31T23:35:12.014Z,100733.88
2019-03-31T23:37:40.650Z,100726.23
2019-03-31T23:40:07.505Z,100727.94
2019-03-31T23:42:33.850Z,100739.25
2019-03-31T23:45:00.551Z,100730.94
2019-03-31T23:47:27.055Z,100727.53
2019-03-31T23:49:53.441Z,100734.91
2019-03-31T23:52:20.166Z,100730.16
2019-03-31T23:54:46.518Z,100729.85
2019-03-31T23:57:12.943Z,100731.33
2019-03-31T23:59:39.549Z,100735.06
